Dades meteomassalio
Diari Summary for Gener 13, 2017 Units:  English    Metric   Both
« Previous Day
Next Day »
Diari Semanal Mensual Anual Personalitzat
  Maxima: Minima: Mijana:
Temperatura: TemperatureC °F 4.1 °F 8.4 °F
Rosada: DewpointC °F -0.2 °F 2.9 °F
Humitat: Humidity % 52 % 68 %
Velocitat del vent: WindSpeedKMH mph 11.1 mph 39.4 mph
Racha vent: WindSpeedGustKMH mph - -
Vent:- - NW
Pressio: PressurehPa in 1017.2 in -
Pluja: 0.0 in    
Historical Graphs
 
 
Tabular Data for Gener 13, 2017
Time Temperature Dew Point Pressure Wind Wind Speed Wind Gust Humidity Rainfall Rate (Hourly) solar Conditions
TemperatureC °F DewpointC °F PressurehPa in Calm     Humidity % HourlyPrecipMM in SolarRadiationWatts/m^2 W/m2 Conditions
00:02 12.5 °F 7.8 °F 1017.8 in WNW 24.1 mph 24.1 mph 73 % 0.0 in 0.0 W/m2 CLR
00:07 12.4 °F 7.7 °F 1017.8 in WNW 18.5 mph 18.5 mph 73 % 0.0 in 0.0 W/m2 CLR
00:12 12.5 °F 7.6 °F 1017.8 in WNW 14.8 mph 14.8 mph 72 % 0.0 in 0.0 W/m2 CLR
00:17 12.4 °F 7.6 °F 1017.8 in WNW 13.0 mph 13.0 mph 72 % 0.0 in 0.0 W/m2 CLR
00:22 12.4 °F 7.7 °F 1017.8 in WNW 11.1 mph 11.1 mph 73 % 0.0 in 0.0 W/m2 CLR
00:27 12.3 °F 7.6 °F 1017.8 in WNW 11.3 mph 11.3 mph 73 % 0.0 in 0.0 W/m2 CLR
00:32 12.3 °F 7.6 °F 1017.8 in West 14.8 mph 14.8 mph 73 % 0.0 in 0.0 W/m2 CLR
00:37 12.2 °F 7.5 °F 1017.8 in WNW 20.4 mph 20.4 mph 73 % 0.0 in 0.0 W/m2 CLR
00:42 12.2 °F 7.7 °F 1017.8 in West 14.8 mph 14.8 mph 74 % 0.0 in 0.0 W/m2 CLR
00:47 12.1 °F 7.6 °F 1017.8 in West 13.0 mph 13.0 mph 74 % 0.0 in 0.0 W/m2 CLR
00:52 12.1 °F 7.6 °F 1017.5 in WNW 14.8 mph 14.8 mph 74 % 0.0 in 0.0 W/m2 CLR
00:57 12.1 °F 7.6 °F 1017.5 in WNW 13.0 mph 13.0 mph 74 % 0.0 in 0.0 W/m2 CLR
01:02 12.1 °F 7.6 °F 1017.5 in West 13.0 mph 13.0 mph 74 % 0.0 in 0.0 W/m2 CLR
01:07 12.0 °F 7.5 °F 1017.5 in WNW 14.8 mph 14.8 mph 74 % 0.0 in 0.0 W/m2 CLR
01:12 11.9 °F 7.4 °F 1017.5 in WNW 16.7 mph 16.7 mph 74 % 0.0 in 0.0 W/m2 CLR
01:17 12.0 °F 7.5 °F 1017.5 in WNW 18.5 mph 18.5 mph 74 % 0.0 in 0.0 W/m2 CLR
01:22 12.1 °F 7.6 °F 1017.5 in WNW 20.4 mph 20.4 mph 74 % 0.0 in 0.0 W/m2 CLR
01:27 12.0 °F 7.5 °F 1017.5 in WNW 16.7 mph 16.7 mph 74 % 0.0 in 0.0 W/m2 CLR
01:32 11.9 °F 7.4 °F 1017.5 in WNW 14.8 mph 14.8 mph 74 % 0.0 in 0.0 W/m2 CLR
01:37 11.8 °F 7.6 °F 1017.5 in WNW 16.7 mph 16.7 mph 75 % 0.0 in 0.0 W/m2 CLR
01:42 11.8 °F 7.5 °F 1017.2 in WNW 17.7 mph 17.7 mph 75 % 0.0 in 0.0 W/m2 CLR
01:47 11.8 °F 7.5 °F 1017.2 in WNW 22.2 mph 22.2 mph 75 % 0.0 in 0.0 W/m2 CLR
01:52 11.8 °F 7.5 °F 1017.2 in WNW 16.7 mph 16.7 mph 75 % 0.0 in 0.0 W/m2 CLR
01:57 11.7 °F 7.4 °F 1017.2 in WNW 14.5 mph 14.5 mph 75 % 0.0 in 0.0 W/m2 CLR
02:02 11.6 °F 7.3 °F 1017.2 in WNW 12.9 mph 12.9 mph 75 % 0.0 in 0.0 W/m2 CLR
02:07 11.3 °F 7.3 °F 1017.2 in WNW 19.3 mph 19.3 mph 76 % 0.0 in 0.0 W/m2 CLR
02:12 11.4 °F 7.3 °F 1017.2 in NW 24.1 mph 24.1 mph 76 % 0.0 in 0.0 W/m2 CLR
02:17 11.4 °F 7.3 °F 1017.2 in NW 24.1 mph 24.1 mph 76 % 0.0 in 0.0 W/m2 CLR
02:22 11.4 °F 7.3 °F 1017.2 in NW 22.5 mph 22.5 mph 76 % 0.0 in 0.0 W/m2 CLR
02:27 11.3 °F 7.3 °F 1017.2 in NW 22.2 mph 22.2 mph 76 % 0.0 in 0.0 W/m2 CLR
02:32 11.3 °F 7.4 °F 1017.2 in NW 27.4 mph 27.4 mph 77 % 0.0 in 0.0 W/m2 CLR
02:37 11.3 °F 7.4 °F 1017.2 in NW 31.5 mph 31.5 mph 77 % 0.0 in 0.0 W/m2 CLR
02:42 11.4 °F 7.3 °F 1017.2 in NW 31.5 mph 31.5 mph 76 % 0.0 in 0.0 W/m2 CLR
02:47 11.4 °F 7.3 °F 1017.2 in NW 31.5 mph 31.5 mph 76 % 0.0 in 0.0 W/m2 CLR
02:52 11.4 °F 7.5 °F 1017.5 in NW 27.8 mph 27.8 mph 77 % 0.0 in 0.0 W/m2 CLR
02:57 11.4 °F 7.3 °F 1017.5 in NW 31.5 mph 31.5 mph 76 % 0.0 in 0.0 W/m2 CLR
03:02 11.5 °F 7.4 °F 1017.5 in NW 27.8 mph 27.8 mph 76 % 0.0 in 0.0 W/m2 CLR
03:07 11.5 °F 7.4 °F 1017.5 in NW 29.6 mph 29.6 mph 76 % 0.0 in 0.0 W/m2 CLR
03:12 11.4 °F 7.2 °F 1017.8 in NW 29.6 mph 29.6 mph 75 % 0.0 in 0.0 W/m2 CLR
03:17 11.4 °F 7.3 °F 1017.8 in NW 25.9 mph 25.9 mph 76 % 0.0 in 0.0 W/m2 CLR
03:22 11.3 °F 7.3 °F 1017.8 in NW 35.2 mph 35.2 mph 76 % 0.0 in 0.0 W/m2 CLR
03:27 11.3 °F 7.2 °F 1017.8 in NW 33.3 mph 33.3 mph 76 % 0.0 in 0.0 W/m2 CLR
03:32 11.2 °F 7.2 °F 1017.5 in NW 27.4 mph 27.4 mph 76 % 0.0 in 0.0 W/m2 CLR
03:37 11.1 °F 7.1 °F 1017.5 in NW 24.1 mph 24.1 mph 76 % 0.0 in 0.0 W/m2 CLR
03:42 11.1 °F 7.0 °F 1017.5 in NW 29.6 mph 29.6 mph 76 % 0.0 in 0.0 W/m2 CLR
03:47 11.0 °F 6.7 °F 1017.5 in NW 29.0 mph 29.0 mph 75 % 0.0 in 0.0 W/m2 CLR
03:52 10.9 °F 6.7 °F 1017.5 in NW 31.5 mph 31.5 mph 75 % 0.0 in 0.0 W/m2 CLR
03:57 10.8 °F 6.6 °F 1017.5 in NW 29.0 mph 29.0 mph 75 % 0.0 in 0.0 W/m2 CLR
04:02 10.8 °F 6.4 °F 1017.5 in NW 31.5 mph 31.5 mph 74 % 0.0 in 0.0 W/m2 CLR
04:07 10.8 °F 6.3 °F 1017.5 in NW 37.0 mph 37.0 mph 74 % 0.0 in 0.0 W/m2 CLR
04:12 10.7 °F 6.3 °F 1017.5 in NW 31.5 mph 31.5 mph 74 % 0.0 in 0.0 W/m2 CLR
04:17 10.6 °F 6.2 °F 1017.5 in NW 46.3 mph 46.3 mph 74 % 0.0 in 0.0 W/m2 CLR
04:22 10.6 °F 6.3 °F 1017.5 in NW 29.6 mph 29.6 mph 75 % 0.0 in 0.0 W/m2 CLR
04:27 10.6 °F 6.3 °F 1017.5 in NW 29.0 mph 29.0 mph 75 % 0.0 in 0.0 W/m2 CLR
04:32 10.5 °F 6.3 °F 1017.5 in NNW 42.6 mph 42.6 mph 75 % 0.0 in 0.0 W/m2 CLR
04:37 10.5 °F 6.3 °F 1017.5 in NNW 35.2 mph 35.2 mph 75 % 0.0 in 0.0 W/m2 CLR
04:42 10.4 °F 6.2 °F 1017.8 in NW 38.9 mph 38.9 mph 75 % 0.0 in 0.0 W/m2 CLR
04:47 10.3 °F 6.3 °F 1017.8 in NNW 31.5 mph 31.5 mph 76 % 0.0 in 0.0 W/m2 CLR
04:48 10.3 °F 6.3 °F 1017.8 in NNW 31.5 mph 31.5 mph 76 % 0.0 in 0.0 W/m2 CLR
04:53 10.2 °F 6.2 °F 1017.8 in NNW 35.4 mph 35.4 mph 76 % 0.0 in 0.0 W/m2 CLR
04:58 10.1 °F 6.1 °F 1017.8 in NW 38.9 mph 38.9 mph 76 % 0.0 in 0.0 W/m2 CLR
05:03 10.0 °F 5.8 °F 1017.8 in NW 48.1 mph 48.1 mph 75 % 0.0 in 0.0 W/m2 CLR
05:08 9.8 °F 5.9 °F 1017.8 in NW 46.3 mph 46.3 mph 77 % 0.0 in 0.0 W/m2 CLR
05:13 9.7 °F 5.7 °F 1017.8 in NW 33.3 mph 33.3 mph 76 % 0.0 in 0.0 W/m2 CLR
05:18 9.7 °F 5.6 °F 1017.8 in NW 29.6 mph 29.6 mph 76 % 0.0 in 0.0 W/m2 CLR
05:23 9.6 °F 5.7 °F 1017.5 in NW 35.2 mph 35.2 mph 77 % 0.0 in 0.0 W/m2 CLR
05:28 9.4 °F 5.4 °F 1017.5 in NW 37.0 mph 37.0 mph 76 % 0.0 in 0.0 W/m2 CLR
05:33 9.3 °F 5.1 °F 1017.8 in NW 42.6 mph 42.6 mph 75 % 0.0 in 0.0 W/m2 CLR
05:38 9.2 °F 5.0 °F 1017.8 in NW 31.5 mph 31.5 mph 75 % 0.0 in 0.0 W/m2 CLR
05:43 9.2 °F 5.0 °F 1017.8 in NW 38.9 mph 38.9 mph 75 % 0.0 in 0.0 W/m2 CLR
05:48 9.2 °F 4.9 °F 1017.8 in NW 35.2 mph 35.2 mph 75 % 0.0 in 0.0 W/m2 CLR
05:53 9.1 °F 4.7 °F 1017.8 in NW 37.0 mph 37.0 mph 74 % 0.0 in 0.0 W/m2 CLR
05:58 9.1 °F 4.8 °F 1018.2 in NW 38.9 mph 38.9 mph 75 % 0.0 in 0.0 W/m2 CLR
06:03 9.0 °F 4.8 °F 1017.8 in NW 40.7 mph 40.7 mph 75 % 0.0 in 0.0 W/m2 CLR
06:08 9.0 °F 4.8 °F 1018.2 in NW 37.0 mph 37.0 mph 75 % 0.0 in 0.0 W/m2 CLR
06:13 8.9 °F 4.7 °F 1018.2 in NW 35.4 mph 35.4 mph 75 % 0.0 in 0.0 W/m2 CLR
06:18 8.8 °F 4.8 °F 1018.2 in NW 29.6 mph 29.6 mph 76 % 0.0 in 0.0 W/m2 CLR
06:23 8.8 °F 4.8 °F 1018.2 in NW 38.9 mph 38.9 mph 76 % 0.0 in 0.0 W/m2 CLR
06:28 8.7 °F 5.1 °F 1018.5 in NW 25.9 mph 25.9 mph 78 % 0.0 in 0.0 W/m2 CLR
06:33 8.6 °F 4.9 °F 1018.5 in NW 42.6 mph 42.6 mph 78 % 0.0 in 0.0 W/m2 CLR
06:38 8.4 °F 4.9 °F 1018.5 in NW 31.5 mph 31.5 mph 79 % 0.0 in 0.0 W/m2 CLR
06:43 8.4 °F 4.9 °F 1018.5 in NW 33.3 mph 33.3 mph 79 % 0.0 in 0.0 W/m2 CLR
06:48 8.3 °F 4.9 °F 1018.2 in NW 31.5 mph 31.5 mph 79 % 0.0 in 0.0 W/m2 CLR
06:53 8.4 °F 4.8 °F 1018.5 in NW 31.5 mph 31.5 mph 78 % 0.0 in 0.0 W/m2 CLR
06:58 8.3 °F 4.9 °F 1018.5 in NW 31.5 mph 31.5 mph 79 % 0.0 in 0.0 W/m2 CLR
07:03 8.3 °F 4.9 °F 1018.2 in NW 31.5 mph 31.5 mph 79 % 0.0 in 0.0 W/m2 CLR
07:08 8.3 °F 4.8 °F 1018.5 in NW 40.7 mph 40.7 mph 79 % 0.0 in 0.0 W/m2 CLR
07:13 8.3 °F 4.7 °F 1018.5 in NW 29.6 mph 29.6 mph 78 % 0.0 in 0.0 W/m2 CLR
07:18 8.3 °F 4.7 °F 1018.5 in NW 38.9 mph 38.9 mph 78 % 0.0 in 0.0 W/m2 CLR
07:23 8.3 °F 4.3 °F 1018.5 in NW 40.7 mph 40.7 mph 76 % 0.0 in 0.0 W/m2 CLR
07:28 8.3 °F 4.2 °F 1018.8 in NW 40.7 mph 40.7 mph 75 % 0.0 in 0.0 W/m2 CLR
07:33 8.3 °F 3.9 °F 1018.8 in NW 46.3 mph 46.3 mph 74 % 0.0 in 0.0 W/m2 CLR
07:38 8.3 °F 3.9 °F 1018.8 in NW 37.0 mph 37.0 mph 74 % 0.0 in 0.0 W/m2 CLR
07:43 8.3 °F 3.7 °F 1018.8 in NW 46.3 mph 46.3 mph 73 % 0.0 in 0.0 W/m2 CLR
07:48 8.2 °F 3.4 °F 1019.2 in NW 49.9 mph 49.9 mph 72 % 0.0 in 0.0 W/m2 CLR
07:53 8.2 °F 3.1 °F 1018.8 in NW 46.3 mph 46.3 mph 70 % 0.0 in 0.0 W/m2 CLR
07:58 8.2 °F 3.0 °F 1018.8 in NW 46.7 mph 46.7 mph 70 % 0.0 in 0.0 W/m2 CLR
08:03 8.1 °F 2.8 °F 1018.8 in NW 48.1 mph 48.1 mph 69 % 0.0 in 0.0 W/m2 CLR
08:08 8.0 °F 2.4 °F 1019.2 in NW 48.3 mph 48.3 mph 68 % 0.0 in 0.0 W/m2 CLR
08:13 8.0 °F 2.7 °F 1019.2 in NW 46.3 mph 46.3 mph 69 % 0.0 in 0.0 W/m2 CLR
08:18 8.0 °F 2.4 °F 1019.5 in NW 55.5 mph 55.5 mph 68 % 0.0 in 0.0 W/m2
08:23 8.0 °F 2.4 °F 1019.5 in NW 55.5 mph 55.5 mph 68 % 0.0 in 0.0 W/m2 OVC
08:28 7.9 °F 2.8 °F 1019.5 in NW 46.3 mph 46.3 mph 70 % 0.0 in 0.0 W/m2 OVC
08:33 7.9 °F 2.9 °F 1019.5 in NW 42.6 mph 42.6 mph 71 % 0.0 in 7.0 W/m2 BKN
08:38 7.8 °F 2.9 °F 1019.5 in NW 46.3 mph 46.3 mph 71 % 0.0 in 12.0 W/m2 BKN
08:43 7.8 °F 2.8 °F 1019.5 in NW 53.7 mph 53.7 mph 71 % 0.0 in 12.0 W/m2 BKN
08:48 7.7 °F 2.4 °F 1019.5 in NW 55.5 mph 55.5 mph 69 % 0.0 in 12.0 W/m2 BKN
08:53 7.6 °F 2.7 °F 1019.5 in NW 50.0 mph 50.0 mph 71 % 0.0 in 18.0 W/m2 BKN
08:59 7.6 °F 2.7 °F 1019.5 in NW 37.0 mph 37.0 mph 71 % 0.0 in 19.0 W/m2 BKN
09:04 7.6 °F 2.6 °F 1019.9 in NW 48.1 mph 48.1 mph 71 % 0.0 in 35.0 W/m2 BKN
09:09 7.6 °F 2.6 °F 1019.9 in NW 40.7 mph 40.7 mph 71 % 0.0 in 42.0 W/m2 BKN
09:14 7.4 °F 2.5 °F 1019.9 in NW 44.4 mph 44.4 mph 71 % 0.0 in 46.0 W/m2 BKN
09:19 7.3 °F 2.2 °F 1020.2 in NW 57.4 mph 57.4 mph 70 % 0.0 in 28.0 W/m2 BKN
09:24 7.3 °F 2.2 °F 1020.2 in NW 55.5 mph 55.5 mph 70 % 0.0 in 63.0 W/m2 BKN
09:29 7.3 °F 2.0 °F 1020.2 in NW 51.8 mph 51.8 mph 69 % 0.0 in 91.0 W/m2 BKN
09:34 7.4 °F 2.1 °F 1020.2 in NW 40.7 mph 40.7 mph 69 % 0.0 in 104.0 W/m2 BKN
09:39 7.4 °F 1.9 °F 1020.5 in NW 59.2 mph 59.2 mph 68 % 0.0 in 98.0 W/m2 BKN
09:44 7.5 °F 1.9 °F 1020.5 in NW 46.3 mph 46.3 mph 68 % 0.0 in 120.0 W/m2 BKN
09:49 7.5 °F 1.9 °F 1020.5 in NNW 53.7 mph 53.7 mph 68 % 0.0 in 116.0 W/m2 BKN
09:54 7.6 °F 2.0 °F 1020.9 in NNW 37.0 mph 37.0 mph 68 % 0.0 in 104.0 W/m2 BKN
09:59 7.6 °F 1.9 °F 1020.9 in NW 49.9 mph 49.9 mph 67 % 0.0 in 165.0 W/m2 BKN
10:04 7.7 °F 1.9 °F 1020.9 in NW 37.0 mph 37.0 mph 67 % 0.0 in 109.0 W/m2 BKN
10:09 7.7 °F 2.0 °F 1020.9 in NW 43.4 mph 43.4 mph 67 % 0.0 in 163.0 W/m2 BKN
10:14 7.7 °F 2.0 °F 1020.9 in NNW 51.8 mph 51.8 mph 67 % 0.0 in 214.0 W/m2 BKN
10:19 7.8 °F 2.1 °F 1020.5 in NNW 44.4 mph 44.4 mph 67 % 0.0 in 234.0 W/m2 SCT
10:24 7.8 °F 2.1 °F 1020.5 in NNW 48.1 mph 48.1 mph 67 % 0.0 in 250.0 W/m2 SCT
10:29 7.8 °F 2.1 °F 1020.2 in NNW 57.9 mph 57.9 mph 67 % 0.0 in 262.0 W/m2 SCT
10:34 7.9 °F 2.1 °F 1020.2 in NW 55.5 mph 55.5 mph 67 % 0.0 in 274.0 W/m2 SCT
10:39 7.9 °F 2.1 °F 1020.5 in NW 55.5 mph 55.5 mph 67 % 0.0 in 285.0 W/m2 SCT
10:44 8.0 °F 2.2 °F 1020.5 in NW 46.3 mph 46.3 mph 67 % 0.0 in 294.0 W/m2 SCT
10:49 8.1 °F 2.1 °F 1020.5 in NNW 55.5 mph 55.5 mph 66 % 0.0 in 304.0 W/m2 SCT
10:54 8.2 °F 2.2 °F 1020.5 in NNW 50.0 mph 50.0 mph 66 % 0.0 in 315.0 W/m2 SCT
10:59 8.3 °F 2.3 °F 1020.5 in NW 54.7 mph 54.7 mph 66 % 0.0 in 323.0 W/m2 FEW
11:04 8.3 °F 1.9 °F 1020.9 in NW 53.7 mph 53.7 mph 64 % 0.0 in 330.0 W/m2 FEW
11:09 8.3 °F 2.1 °F 1020.5 in NW 59.5 mph 59.5 mph 65 % 0.0 in 346.0 W/m2 FEW
11:14 8.3 °F 2.1 °F 1020.5 in NW 53.1 mph 53.1 mph 65 % 0.0 in 352.0 W/m2 FEW
11:19 8.4 °F 2.2 °F 1020.2 in NW 48.1 mph 48.1 mph 65 % 0.0 in 359.0 W/m2 FEW
11:24 8.4 °F 1.5 °F 1020.5 in NNW 57.4 mph 57.4 mph 62 % 0.0 in 369.0 W/m2 FEW
11:29 8.3 °F 1.4 °F 1020.9 in NW 53.7 mph 53.7 mph 62 % 0.0 in 376.0 W/m2 FEW
11:34 8.4 °F 1.3 °F 1020.5 in NW 55.5 mph 55.5 mph 61 % 0.0 in 383.0 W/m2 FEW
11:39 8.5 °F 1.4 °F 1020.5 in NW 61.1 mph 61.1 mph 61 % 0.0 in 392.0 W/m2 FEW
11:44 8.6 °F 1.1 °F 1020.9 in NW 64.8 mph 64.8 mph 59 % 0.0 in 397.0 W/m2 FEW
11:49 8.7 °F 1.1 °F 1020.9 in NNW 53.7 mph 53.7 mph 59 % 0.0 in 404.0 W/m2 FEW
11:54 8.7 °F 1.2 °F 1020.5 in NNW 55.5 mph 55.5 mph 59 % 0.0 in 408.0 W/m2 FEW
11:59 8.8 °F 1.2 °F 1020.5 in NNW 57.4 mph 57.4 mph 59 % 0.0 in 417.0 W/m2 FEW
12:04 8.9 °F 1.1 °F 1020.5 in NW 62.9 mph 62.9 mph 58 % 0.0 in 422.0 W/m2 CLR
12:09 8.7 °F 0.9 °F 1020.5 in NW 55.5 mph 55.5 mph 58 % 0.0 in 432.0 W/m2 CLR
12:14 8.8 °F 1.4 °F 1020.5 in NW 70.3 mph 70.3 mph 60 % 0.0 in 441.0 W/m2 CLR
12:19 8.9 °F 1.8 °F 1020.2 in NW 42.6 mph 42.6 mph 61 % 0.0 in 438.0 W/m2 CLR
12:24 8.8 °F 1.7 °F 1020.2 in NW 57.4 mph 57.4 mph 61 % 0.0 in 441.0 W/m2 CLR
12:29 8.8 °F 1.5 °F 1019.9 in NW 55.5 mph 55.5 mph 60 % 0.0 in 446.0 W/m2 CLR
12:34 8.8 °F 1.2 °F 1020.2 in NW 55.5 mph 55.5 mph 59 % 0.0 in 452.0 W/m2 CLR
12:39 8.9 °F 1.6 °F 1020.2 in NW 57.9 mph 57.9 mph 60 % 0.0 in 450.0 W/m2 CLR
12:44 8.8 °F 1.7 °F 1020.2 in NW 55.5 mph 55.5 mph 61 % 0.0 in 452.0 W/m2 CLR
12:49 8.8 °F 1.5 °F 1020.2 in NW 55.5 mph 55.5 mph 60 % 0.0 in 464.0 W/m2 CLR
12:54 9.0 °F 1.7 °F 1020.2 in NW 50.0 mph 50.0 mph 60 % 0.0 in 462.0 W/m2 CLR
12:59 9.1 °F 1.3 °F 1020.2 in NW 50.0 mph 50.0 mph 58 % 0.0 in 466.0 W/m2 CLR
13:04 9.3 °F 1.4 °F 1020.2 in NW 55.5 mph 55.5 mph 58 % 0.0 in 496.0 W/m2 CLR
13:09 9.3 °F 1.2 °F 1020.2 in NW 61.1 mph 61.1 mph 57 % 0.0 in 462.0 W/m2 CLR
13:15 9.2 °F 1.1 °F 1019.9 in NW 48.1 mph 48.1 mph 57 % 0.0 in 468.0 W/m2 CLR
13:20 9.2 °F 1.1 °F 1020.2 in NNW 57.9 mph 57.9 mph 57 % 0.0 in 476.0 W/m2 CLR
13:25 9.2 °F 0.9 °F 1019.9 in NNW 48.3 mph 48.3 mph 56 % 0.0 in 473.0 W/m2 CLR
13:30 9.1 °F 1.1 °F 1019.9 in NNW 51.8 mph 51.8 mph 57 % 0.0 in 476.0 W/m2 CLR
13:35 9.0 °F 0.7 °F 1020.2 in NW 61.1 mph 61.1 mph 56 % 0.0 in 455.0 W/m2 CLR
13:40 9.1 °F 1.0 °F 1020.2 in NW 50.0 mph 50.0 mph 57 % 0.0 in 461.0 W/m2 CLR
13:45 9.2 °F 1.1 °F 1020.2 in NW 42.6 mph 42.6 mph 57 % 0.0 in 478.0 W/m2 CLR
13:50 9.0 °F 0.9 °F 1019.9 in NW 62.9 mph 62.9 mph 57 % 0.0 in 448.0 W/m2 CLR
13:55 9.1 °F 1.3 °F 1019.9 in NW 46.3 mph 46.3 mph 58 % 0.0 in 462.0 W/m2 CLR
14:00 9.2 °F 0.8 °F 1019.9 in NW 68.5 mph 68.5 mph 56 % 0.0 in 438.0 W/m2 CLR
14:05 9.2 °F 0.8 °F 1019.9 in NW 57.4 mph 57.4 mph 56 % 0.0 in 438.0 W/m2 CLR
14:10 9.3 °F 1.2 °F 1019.9 in NW 42.6 mph 42.6 mph 57 % 0.0 in 452.0 W/m2 CLR
14:15 9.5 °F 0.9 °F 1019.9 in NNW 62.8 mph 62.8 mph 55 % 0.0 in 503.0 W/m2 CLR
14:20 9.5 °F 1.2 °F 1019.9 in NNW 37.0 mph 37.0 mph 56 % 0.0 in 425.0 W/m2 CLR
14:25 9.4 °F 0.6 °F 1019.9 in NW 44.4 mph 44.4 mph 54 % 0.0 in 415.0 W/m2 CLR
14:30 9.3 °F 0.5 °F 1019.9 in NW 55.5 mph 55.5 mph 54 % 0.0 in 411.0 W/m2 CLR
14:35 9.4 °F 0.0 °F 1019.9 in NW 62.9 mph 62.9 mph 52 % 0.0 in 399.0 W/m2 CLR
14:40 9.2 °F -0.1 °F 1020.2 in NNW 59.5 mph 59.5 mph 52 % 0.0 in 367.0 W/m2 CLR
14:45 9.2 °F 0.3 °F 1020.2 in NNW 51.8 mph 51.8 mph 54 % 0.0 in 387.0 W/m2 CLR
14:50 9.2 °F 0.3 °F 1019.9 in NW 55.5 mph 55.5 mph 54 % 0.0 in 381.0 W/m2 CLR
14:55 9.2 °F 0.4 °F 1019.9 in NW 46.3 mph 46.3 mph 54 % 0.0 in 369.0 W/m2 CLR
15:00 9.3 °F 0.5 °F 1019.9 in NNW 40.7 mph 40.7 mph 54 % 0.0 in 367.0 W/m2 CLR
15:05 9.4 °F 0.6 °F 1019.9 in NNW 50.0 mph 50.0 mph 54 % 0.0 in 360.0 W/m2 CLR
15:10 9.5 °F 0.7 °F 1019.9 in NW 45.1 mph 45.1 mph 54 % 0.0 in 348.0 W/m2 CLR
15:15 9.3 °F 0.5 °F 1019.9 in NW 43.4 mph 43.4 mph 54 % 0.0 in 346.0 W/m2 CLR
15:20 9.2 °F 0.1 °F 1020.2 in NW 53.7 mph 53.7 mph 53 % 0.0 in 334.0 W/m2 CLR
15:25 9.2 °F 0.4 °F 1020.2 in NW 42.6 mph 42.6 mph 54 % 0.0 in 322.0 W/m2 CLR
15:30 9.3 °F 0.5 °F 1019.9 in NW 31.5 mph 31.5 mph 54 % 0.0 in 311.0 W/m2 CLR
15:35 9.4 °F 0.8 °F 1019.9 in NNW 37.0 mph 37.0 mph 55 % 0.0 in 306.0 W/m2 CLR
15:40 9.4 °F 0.8 °F 1019.9 in NW 40.7 mph 40.7 mph 55 % 0.0 in 295.0 W/m2 CLR
15:45 9.3 °F 1.0 °F 1019.9 in NW 27.8 mph 27.8 mph 56 % 0.0 in 279.0 W/m2 CLR
15:50 9.3 °F 0.7 °F 1019.9 in NW 48.1 mph 48.1 mph 55 % 0.0 in 271.0 W/m2 CLR
15:55 9.1 °F 0.8 °F 1019.9 in NW 40.7 mph 40.7 mph 56 % 0.0 in 258.0 W/m2 CLR
16:00 9.1 °F 0.8 °F 1019.9 in NNW 48.1 mph 48.1 mph 56 % 0.0 in 246.0 W/m2 CLR
16:05 9.1 °F 0.7 °F 1020.2 in NW 46.3 mph 46.3 mph 56 % 0.0 in 232.0 W/m2 CLR
16:10 9.0 °F 0.9 °F 1020.2 in NW 40.7 mph 40.7 mph 57 % 0.0 in 218.0 W/m2 CLR
16:15 9.0 °F 0.7 °F 1020.2 in NW 48.1 mph 48.1 mph 56 % 0.0 in 190.0 W/m2 CLR
16:20 8.9 °F 0.9 °F 1020.2 in NW 42.6 mph 42.6 mph 57 % 0.0 in 186.0 W/m2 CLR
16:25 8.8 °F 0.8 °F 1020.2 in NW 44.4 mph 44.4 mph 57 % 0.0 in 174.0 W/m2 CLR
16:30 8.8 °F 0.7 °F 1020.2 in NW 56.3 mph 56.3 mph 57 % 0.0 in 158.0 W/m2 CLR
16:35 8.7 °F 0.9 °F 1019.9 in NW 55.5 mph 55.5 mph 58 % 0.0 in 142.0 W/m2 CLR
16:40 8.6 °F 0.6 °F 1020.2 in NW 57.4 mph 57.4 mph 57 % 0.0 in 125.0 W/m2 CLR
16:45 8.6 °F 0.5 °F 1020.2 in NW 53.7 mph 53.7 mph 57 % 0.0 in 113.0 W/m2 CLR
16:50 8.5 °F 0.2 °F 1020.2 in NW 33.3 mph 33.3 mph 56 % 0.0 in 100.0 W/m2 CLR
16:56 8.4 °F 0.3 °F 1020.5 in NW 55.5 mph 55.5 mph 57 % 0.0 in 86.0 W/m2 CLR
17:01 8.3 °F 0.3 °F 1020.5 in NW 50.0 mph 50.0 mph 57 % 0.0 in 72.0 W/m2 CLR
17:06 8.3 °F 0.3 °F 1020.5 in NW 51.8 mph 51.8 mph 57 % 0.0 in 62.0 W/m2 CLR
17:11 8.3 °F 0.0 °F 1020.5 in NW 55.5 mph 55.5 mph 56 % 0.0 in 49.0 W/m2 OVC
17:16 8.2 °F -0.1 °F 1020.5 in NW 38.9 mph 38.9 mph 56 % 0.0 in 39.0 W/m2 OVC
17:21 8.1 °F -0.2 °F 1020.5 in NW 50.0 mph 50.0 mph 56 % 0.0 in 26.0 W/m2 OVC
17:26 7.9 °F -0.1 °F 1020.5 in NW 57.4 mph 57.4 mph 57 % 0.0 in 19.0 W/m2
17:31 7.8 °F 0.1 °F 1020.9 in NW 59.2 mph 59.2 mph 58 % 0.0 in 14.0 W/m2
17:36 7.7 °F 0.2 °F 1020.9 in NW 44.4 mph 44.4 mph 59 % 0.0 in 12.0 W/m2 OVC
17:41 7.6 °F 0.3 °F 1020.9 in NW 46.3 mph 46.3 mph 60 % 0.0 in 9.0 W/m2 OVC
17:46 7.4 °F 0.4 °F 1020.9 in NW 35.4 mph 35.4 mph 61 % 0.0 in 7.0 W/m2 OVC
17:51 7.3 °F 0.3 °F 1020.9 in NNW 33.3 mph 33.3 mph 61 % 0.0 in 5.0 W/m2 OVC
17:56 7.2 °F 0.4 °F 1021.2 in NW 40.7 mph 40.7 mph 62 % 0.0 in 0.0 W/m2 CLR
18:01 7.2 °F 0.7 °F 1021.2 in NW 42.6 mph 42.6 mph 63 % 0.0 in 0.0 W/m2 CLR
18:06 7.2 °F 0.7 °F 1021.2 in NW 38.9 mph 38.9 mph 63 % 0.0 in 0.0 W/m2 CLR
18:11 7.2 °F 0.8 °F 1021.2 in NNW 38.9 mph 38.9 mph 64 % 0.0 in 0.0 W/m2 CLR
18:16 7.1 °F 0.6 °F 1021.2 in NW 44.4 mph 44.4 mph 63 % 0.0 in 0.0 W/m2 CLR
18:21 7.1 °F 0.5 °F 1021.2 in NW 42.6 mph 42.6 mph 63 % 0.0 in 0.0 W/m2 CLR
18:26 7.0 °F 0.4 °F 1021.2 in NW 38.9 mph 38.9 mph 63 % 0.0 in 0.0 W/m2 CLR
18:31 6.9 °F 0.3 °F 1021.6 in NW 48.3 mph 48.3 mph 63 % 0.0 in 0.0 W/m2 CLR
18:36 6.8 °F 0.5 °F 1021.6 in NW 48.1 mph 48.1 mph 64 % 0.0 in 0.0 W/m2 CLR
18:41 6.8 °F 0.7 °F 1021.6 in NW 51.8 mph 51.8 mph 65 % 0.0 in 0.0 W/m2 CLR
18:46 6.7 °F 0.6 °F 1021.6 in NNW 44.4 mph 44.4 mph 65 % 0.0 in 0.0 W/m2 CLR
18:51 6.7 °F 0.6 °F 1021.6 in NW 51.5 mph 51.5 mph 65 % 0.0 in 0.0 W/m2 CLR
18:56 6.7 °F 0.6 °F 1021.6 in NW 50.0 mph 50.0 mph 65 % 0.0 in 0.0 W/m2 CLR
19:01 6.7 °F 0.8 °F 1021.6 in NW 46.3 mph 46.3 mph 66 % 0.0 in 0.0 W/m2 CLR
19:06 6.7 °F 0.6 °F 1021.6 in NW 51.8 mph 51.8 mph 65 % 0.0 in 0.0 W/m2 CLR
19:11 6.6 °F 0.7 °F 1021.9 in NW 53.7 mph 53.7 mph 66 % 0.0 in 0.0 W/m2 CLR
19:16 6.6 °F 0.9 °F 1021.9 in NW 42.6 mph 42.6 mph 67 % 0.0 in 0.0 W/m2 CLR
19:21 6.4 °F 1.1 °F 1022.2 in NW 32.2 mph 32.2 mph 69 % 0.0 in 0.0 W/m2 CLR
19:26 6.3 °F 1.2 °F 1022.2 in NW 42.6 mph 42.6 mph 70 % 0.0 in 0.0 W/m2 CLR
19:31 6.1 °F 1.2 °F 1022.2 in NW 37.0 mph 37.0 mph 71 % 0.0 in 0.0 W/m2 CLR
19:36 6.1 °F 1.2 °F 1022.2 in NW 38.9 mph 38.9 mph 71 % 0.0 in 0.0 W/m2 CLR
19:41 5.9 °F 1.1 °F 1022.2 in NW 38.9 mph 38.9 mph 71 % 0.0 in 0.0 W/m2 CLR
19:46 5.9 °F 1.2 °F 1022.2 in NW 48.1 mph 48.1 mph 72 % 0.0 in 0.0 W/m2 CLR
19:51 5.8 °F 1.2 °F 1022.2 in WNW 37.0 mph 37.0 mph 72 % 0.0 in 0.0 W/m2 CLR
19:56 5.8 °F 1.2 °F 1022.2 in NW 42.6 mph 42.6 mph 72 % 0.0 in 0.0 W/m2 CLR
20:01 5.9 °F 1.2 °F 1022.6 in NW 50.0 mph 50.0 mph 72 % 0.0 in 0.0 W/m2 CLR
20:06 5.8 °F 1.2 °F 1022.6 in NW 31.5 mph 31.5 mph 72 % 0.0 in 0.0 W/m2 CLR
20:11 5.8 °F 1.1 °F 1022.6 in NW 35.2 mph 35.2 mph 72 % 0.0 in 0.0 W/m2 CLR
20:16 5.7 °F 1.0 °F 1022.2 in NW 25.9 mph 25.9 mph 72 % 0.0 in 0.0 W/m2 CLR
20:21 5.6 °F 1.2 °F 1022.2 in NW 37.0 mph 37.0 mph 73 % 0.0 in 0.0 W/m2 CLR
20:26 5.5 °F 1.1 °F 1022.2 in NW 31.5 mph 31.5 mph 73 % 0.0 in 0.0 W/m2 CLR
20:31 5.5 °F 1.1 °F 1022.2 in WNW 42.6 mph 42.6 mph 73 % 0.0 in 0.0 W/m2 CLR
20:36 5.5 °F 1.1 °F 1022.6 in NW 31.5 mph 31.5 mph 73 % 0.0 in 0.0 W/m2 CLR
20:41 5.4 °F 1.0 °F 1022.6 in NW 35.4 mph 35.4 mph 73 % 0.0 in 0.0 W/m2 CLR
20:46 5.4 °F 1.0 °F 1022.9 in NW 48.1 mph 48.1 mph 73 % 0.0 in 0.0 W/m2 CLR
20:51 5.4 °F 1.0 °F 1022.9 in NW 31.5 mph 31.5 mph 73 % 0.0 in 0.0 W/m2 CLR
20:56 5.3 °F 0.9 °F 1023.2 in NW 29.6 mph 29.6 mph 73 % 0.0 in 0.0 W/m2 CLR
21:01 5.3 °F 0.9 °F 1022.9 in NW 29.0 mph 29.0 mph 73 % 0.0 in 0.0 W/m2 CLR
21:06 5.3 °F 0.8 °F 1022.9 in NW 42.6 mph 42.6 mph 73 % 0.0 in 0.0 W/m2 CLR
21:11 5.2 °F 0.9 °F 1022.9 in NW 37.0 mph 37.0 mph 74 % 0.0 in 0.0 W/m2 CLR
21:16 5.2 °F 0.9 °F 1023.2 in NW 35.2 mph 35.2 mph 74 % 0.0 in 0.0 W/m2 CLR
21:21 5.1 °F 0.8 °F 1022.9 in NW 24.1 mph 24.1 mph 74 % 0.0 in 0.0 W/m2 CLR
21:26 5.1 °F 0.8 °F 1022.9 in NW 27.8 mph 27.8 mph 74 % 0.0 in 0.0 W/m2 CLR
21:31 5.1 °F 0.8 °F 1022.9 in WNW 27.8 mph 27.8 mph 74 % 0.0 in 0.0 W/m2 CLR
21:36 4.9 °F 0.7 °F 1023.2 in WNW 31.5 mph 31.5 mph 74 % 0.0 in 0.0 W/m2 CLR
21:41 5.0 °F 0.7 °F 1023.2 in WNW 31.5 mph 31.5 mph 74 % 0.0 in 0.0 W/m2 CLR
21:46 4.9 °F 0.8 °F 1023.2 in NW 35.2 mph 35.2 mph 75 % 0.0 in 0.0 W/m2 CLR
21:51 4.9 °F 0.8 °F 1023.2 in NW 25.9 mph 25.9 mph 75 % 0.0 in 0.0 W/m2 CLR
21:56 4.8 °F 0.9 °F 1023.2 in NW 33.3 mph 33.3 mph 76 % 0.0 in 0.0 W/m2 CLR
22:01 4.8 °F 0.9 °F 1023.2 in NW 27.8 mph 27.8 mph 76 % 0.0 in 0.0 W/m2 CLR
22:06 4.8 °F 0.9 °F 1023.2 in NW 31.5 mph 31.5 mph 76 % 0.0 in 0.0 W/m2 CLR
22:11 4.8 °F 0.9 °F 1023.2 in NW 29.6 mph 29.6 mph 76 % 0.0 in 0.0 W/m2 CLR
22:16 4.8 °F 0.9 °F 1023.6 in NW 20.9 mph 20.9 mph 76 % 0.0 in 0.0 W/m2 CLR
22:21 4.9 °F 1.0 °F 1023.6 in NW 24.1 mph 24.1 mph 76 % 0.0 in 0.0 W/m2 CLR
22:26 4.9 °F 1.2 °F 1023.6 in NW 29.6 mph 29.6 mph 77 % 0.0 in 0.0 W/m2 CLR
22:31 4.8 °F 1.1 °F 1023.6 in NW 31.5 mph 31.5 mph 77 % 0.0 in 0.0 W/m2 CLR
22:36 4.8 °F 1.1 °F 1023.6 in NW 29.0 mph 29.0 mph 77 % 0.0 in 0.0 W/m2 CLR
22:41 4.6 °F 1.1 °F 1023.6 in NW 31.5 mph 31.5 mph 78 % 0.0 in 0.0 W/m2 CLR
22:47 4.5 °F 1.0 °F 1023.6 in NW 22.2 mph 22.2 mph 78 % 0.0 in 0.0 W/m2 CLR
22:52 4.4 °F 1.1 °F 1023.6 in WNW 18.5 mph 20.8 mph 79 % 0.0 in 0.0 W/m2 CLR
22:57 4.3 °F 1.0 °F 1023.6 in WNW 24.1 mph 24.1 mph 79 % 0.0 in 0.0 W/m2 CLR
23:02 4.3 °F 1.0 °F 1023.6 in NW 25.9 mph 25.9 mph 79 % 0.0 in 0.0 W/m2 CLR
23:07 4.3 °F 0.9 °F 1023.6 in NW 25.9 mph 25.9 mph 79 % 0.0 in 0.0 W/m2 CLR
23:12 4.2 °F 0.8 °F 1023.6 in WNW 20.9 mph 20.9 mph 79 % 0.0 in 0.0 W/m2 CLR
23:17 4.1 °F 0.9 °F 1023.6 in WNW 41.8 mph 41.8 mph 80 % 0.0 in 0.0 W/m2 CLR
23:22 4.2 °F 1.0 °F 1023.6 in NW 31.5 mph 31.5 mph 80 % 0.0 in 0.0 W/m2 CLR
23:27 4.1 °F 0.9 °F 1023.9 in WNW 29.6 mph 29.6 mph 80 % 0.0 in 0.0 W/m2 CLR
23:32 4.2 °F 1.0 °F 1023.9 in WNW 33.3 mph 33.3 mph 80 % 0.0 in 0.0 W/m2 CLR
23:37 4.1 °F 0.9 °F 1023.9 in NW 33.3 mph 33.3 mph 80 % 0.0 in 0.0 W/m2 CLR
23:42 4.2 °F 1.0 °F 1023.9 in NW 29.6 mph 29.6 mph 80 % 0.0 in 0.0 W/m2 CLR
23:47 4.1 °F 0.9 °F 1024.3 in NW 25.9 mph 25.9 mph 80 % 0.0 in 0.0 W/m2 CLR
23:52 4.1 °F 0.9 °F 1024.3 in NW 20.4 mph 20.4 mph 80 % 0.0 in 0.0 W/m2 CLR
23:57 4.1 °F 0.9 °F 1024.3 in NW 27.8 mph 27.8 mph 80 % 0.0 in 0.0 W/m2 CLR
Lo Temps de Massalio
Compliments of Weather Underground - 1.25 mb